createdAt,value
2022-12-11T00:00:48.202Z,22.13
2022-12-11T00:03:17.154Z,20.40
2022-12-11T00:05:44.590Z,22.10
2022-12-11T00:08:11.823Z,23.85
2022-12-11T00:10:38.410Z,21.42
2022-12-11T00:13:05.438Z,21.42
2022-12-11T00:15:32.046Z,19.50
2022-12-11T00:17:58.501Z,19.90
2022-12-11T00:20:24.955Z,18.60
2022-12-11T00:22:51.355Z,18.75
2022-12-11T00:25:17.985Z,23.35
2022-12-11T00:27:46.667Z,20.10
2022-12-11T00:30:14.013Z,19.38
2022-12-11T00:32:40.622Z,21.20
2022-12-11T00:35:07.385Z,22.58
2022-12-11T00:37:33.989Z,23.67
2022-12-11T00:40:00.499Z,22.70
2022-12-11T00:42:26.909Z,21.92
2022-12-11T00:44:54.844Z,20.17
2022-12-11T00:47:21.263Z,18.90
2022-12-11T00:49:49.957Z,20.88
2022-12-11T00:52:17.784Z,22.58
2022-12-11T00:54:44.561Z,24.20
2022-12-11T00:57:10.982Z,21.83
2022-12-11T00:59:37.551Z,18.58
2022-12-11T01:02:03.951Z,21.45
2022-12-11T01:04:30.427Z,22.55
2022-12-11T01:06:56.896Z,21.67
2022-12-11T01:09:41.934Z,22.83
2022-12-11T01:12:08.410Z,22.40
2022-12-11T01:14:34.840Z,23.27
2022-12-11T01:17:01.411Z,23.15
2022-12-11T01:19:28.520Z,24.55
2022-12-11T01:21:55.006Z,21.38
2022-12-11T01:24:21.490Z,21.60
2022-12-11T01:26:47.908Z,22.83
2022-12-11T01:29:15.275Z,21.92
2022-12-11T01:31:41.702Z,21.73
2022-12-11T01:34:08.139Z,23.23
2022-12-11T01:36:34.535Z,20.65
2022-12-11T01:39:01.035Z,21.85
2022-12-11T01:41:27.573Z,19.70
2022-12-11T01:44:27.447Z,21.35
2022-12-11T01:46:54.250Z,21.13
2022-12-11T01:49:25.847Z,18.17
2022-12-11T01:54:21.585Z,23.88
2022-12-11T01:56:51.687Z,17.50
2022-12-11T01:59:24.404Z,22.38
2022-12-11T02:02:06.438Z,21.52
2022-12-11T02:07:01.219Z,20.95
2022-12-11T02:09:33.419Z,23.65
2022-12-11T02:12:09.050Z,19.17
2022-12-11T02:14:55.171Z,21.25
2022-12-11T02:17:38.539Z,19.70
2022-12-11T02:20:16.568Z,17.90
2022-12-11T02:23:06.028Z,16.70
2022-12-11T02:25:44.264Z,18.58
2022-12-11T02:28:32.185Z,21.65
2022-12-11T02:31:27.659Z,20.20
2022-12-11T02:34:06.316Z,19.55
2022-12-11T02:36:37.992Z,20.10
2022-12-11T02:41:33.692Z,16.92
2022-12-11T02:44:02.991Z,20.88
2022-12-11T02:46:31.283Z,17.65
2022-12-11T02:48:58.378Z,20.98
2022-12-11T02:51:31.129Z,19.13
2022-12-11T02:53:59.442Z,19.55
2022-12-11T02:56:50.236Z,18.42
2022-12-11T02:59:26.133Z,18.60
2022-12-11T03:01:52.641Z,18.77
2022-12-11T03:04:19.146Z,17.88
2022-12-11T03:06:54.252Z,22.92
2022-12-11T03:09:21.111Z,23.73
2022-12-11T03:11:47.710Z,19.80
2022-12-11T03:14:14.307Z,19.10
2022-12-11T03:17:14.238Z,21.58
2022-12-11T03:19:43.550Z,18.60
2022-12-11T03:22:22.649Z,20.90
2022-12-11T03:25:01.800Z,19.98
2022-12-11T03:27:36.587Z,19.15
2022-12-11T03:30:16.350Z,19.08
2022-12-11T03:32:53.644Z,18.52
2022-12-11T03:35:33.075Z,17.58
2022-12-11T03:38:06.695Z,20.05
2022-12-11T03:40:35.589Z,19.80
2022-12-11T03:43:04.920Z,16.30
2022-12-11T03:45:33.973Z,18.98
2022-12-11T03:48:02.634Z,18.50
2022-12-11T03:50:32.065Z,19.73
2022-12-11T03:53:00.364Z,19.15
2022-12-11T03:55:29.287Z,18.23
2022-12-11T03:57:56.032Z,17.85
2022-12-11T04:00:23.309Z,15.48
2022-12-11T04:03:13.690Z,18.70
2022-12-11T04:05:42.000Z,17.35
2022-12-11T04:08:08.693Z,16.88
2022-12-11T04:10:35.108Z,19.23
2022-12-11T04:13:01.620Z,18.60
2022-12-11T04:15:28.111Z,21.95
2022-12-11T04:18:12.892Z,21.55
2022-12-11T04:20:57.825Z,15.93
2022-12-11T04:23:43.144Z,18.77
2022-12-11T04:26:15.567Z,17.60
2022-12-11T04:28:43.481Z,16.25
2022-12-11T04:31:18.967Z,18.13
2022-12-11T04:33:45.568Z,20.58
2022-12-11T04:36:12.924Z,19.52
2022-12-11T04:38:39.401Z,19.08
2022-12-11T04:41:14.139Z,16.35
2022-12-11T04:43:40.676Z,18.45
2022-12-11T04:46:08.214Z,18.83
2022-12-11T04:48:35.371Z,17.05
2022-12-11T04:51:02.020Z,19.20
2022-12-11T04:53:28.818Z,19.17
2022-12-11T04:55:55.899Z,15.88
2022-12-11T04:58:22.947Z,21.08
2022-12-11T05:00:49.508Z,16.30
2022-12-11T05:03:16.431Z,21.02
2022-12-11T05:05:51.929Z,16.08
2022-12-11T05:08:21.486Z,16.30
2022-12-11T05:10:59.350Z,20.52
2022-12-11T05:13:27.176Z,19.20
2022-12-11T05:15:53.671Z,16.60
2022-12-11T05:18:20.231Z,18.13
2022-12-11T05:20:55.753Z,16.20
2022-12-11T05:23:22.326Z,18.52
2022-12-11T05:26:01.898Z,17.98
2022-12-11T05:28:30.211Z,18.67
2022-12-11T05:31:01.528Z,19.83
2022-12-11T05:33:29.970Z,16.75
2022-12-11T05:35:56.942Z,19.10
2022-12-11T05:38:23.927Z,15.65
2022-12-11T05:40:58.929Z,18.38
2022-12-11T05:43:27.117Z,19.10
2022-12-11T05:45:54.203Z,16.20
2022-12-11T05:48:20.644Z,15.23
2022-12-11T05:51:00.943Z,17.95
2022-12-11T05:53:28.354Z,21.42
2022-12-11T05:55:55.343Z,19.17
2022-12-11T05:58:21.807Z,21.70
2022-12-11T06:00:48.425Z,19.20
2022-12-11T06:03:15.456Z,14.48
2022-12-11T06:05:43.219Z,17.88
2022-12-11T06:08:09.950Z,19.00
2022-12-11T06:10:36.472Z,20.10
2022-12-11T06:13:03.171Z,20.00
2022-12-11T06:15:29.687Z,19.83
2022-12-11T06:17:56.191Z,18.58
2022-12-11T06:20:22.675Z,22.38
2022-12-11T06:22:49.167Z,25.65
2022-12-11T06:25:15.619Z,22.88
2022-12-11T06:27:42.057Z,23.85
2022-12-11T06:30:09.080Z,21.63
2022-12-11T06:32:35.467Z,22.42
2022-12-11T06:35:01.867Z,28.02
2022-12-11T06:37:28.323Z,29.52
2022-12-11T06:39:54.743Z,25.58
2022-12-11T06:42:21.161Z,25.45
2022-12-11T06:44:47.955Z,29.08
2022-12-11T06:47:14.391Z,30.17
2022-12-11T06:49:40.841Z,32.42
2022-12-11T06:52:07.248Z,46.67
2022-12-11T06:54:33.749Z,39.60
2022-12-11T06:57:00.208Z,39.03
2022-12-11T06:59:26.629Z,36.38
2022-12-11T07:01:53.092Z,40.03
2022-12-11T07:04:19.659Z,39.00
2022-12-11T07:06:47.367Z,37.25
2022-12-11T07:09:13.737Z,32.00
2022-12-11T07:11:40.191Z,29.38
2022-12-11T07:14:06.747Z,38.58
2022-12-11T07:16:33.389Z,33.72
2022-12-11T07:19:00.337Z,34.28
2022-12-11T07:21:26.775Z,34.92
2022-12-11T07:23:53.264Z,37.05
2022-12-11T07:26:21.986Z,33.67
2022-12-11T07:28:48.815Z,40.00
2022-12-11T07:31:21.870Z,39.25
2022-12-11T07:33:52.403Z,36.83
2022-12-11T07:36:18.886Z,31.13
2022-12-11T07:38:45.781Z,34.75
2022-12-11T07:41:13.901Z,33.13
2022-12-11T07:43:41.526Z,35.25
2022-12-11T07:46:14.234Z,41.72
2022-12-11T07:48:42.394Z,36.33
2022-12-11T07:51:33.233Z,38.97
2022-12-11T07:54:03.192Z,35.78
2022-12-11T07:56:30.598Z,32.30
2022-12-11T07:59:00.458Z,31.30
2022-12-11T08:01:28.319Z,33.53
2022-12-11T08:03:55.905Z,31.58
2022-12-11T08:06:28.147Z,36.38
2022-12-11T08:08:55.657Z,39.75
2022-12-11T08:11:22.395Z,30.83
2022-12-11T08:13:49.632Z,34.72
2022-12-11T08:16:17.595Z,33.88
2022-12-11T08:18:45.990Z,29.52
2022-12-11T08:21:18.691Z,32.67
2022-12-11T08:23:45.192Z,34.80
2022-12-11T08:26:15.102Z,32.63
2022-12-11T08:28:41.789Z,40.90
2022-12-11T08:31:10.500Z,37.85
2022-12-11T08:33:38.147Z,37.53
2022-12-11T08:36:07.081Z,40.83
2022-12-11T08:38:34.415Z,30.88
2022-12-11T08:41:21.405Z,34.33
2022-12-11T08:43:49.187Z,30.27
2022-12-11T08:46:15.848Z,28.65
2022-12-11T08:48:43.132Z,29.52
2022-12-11T08:51:13.413Z,25.35
2022-12-11T08:53:39.841Z,26.63
2022-12-11T08:56:09.579Z,26.92
2022-12-11T08:58:36.416Z,26.35
2022-12-11T09:01:14.736Z,23.08
2022-12-11T09:03:41.578Z,23.02
2022-12-11T09:06:10.592Z,20.60
2022-12-11T09:08:37.462Z,20.50
2022-12-11T09:11:09.883Z,26.52
2022-12-11T09:13:37.206Z,25.45
2022-12-11T09:16:09.387Z,23.33
2022-12-11T09:18:37.575Z,21.88
2022-12-11T09:21:09.694Z,20.42
2022-12-11T09:23:36.393Z,23.13
2022-12-11T09:26:12.035Z,19.85
2022-12-11T09:28:45.732Z,19.00
2022-12-11T09:31:19.079Z,19.58
2022-12-11T09:33:46.229Z,17.73
2022-12-11T09:36:12.976Z,20.25
2022-12-11T09:38:39.608Z,23.98
2022-12-11T09:41:37.019Z,20.88
2022-12-11T09:44:20.802Z,23.15
2022-12-11T09:46:48.954Z,23.40
2022-12-11T09:49:27.761Z,21.48
2022-12-11T09:52:03.673Z,23.48
2022-12-11T09:54:30.181Z,17.23
2022-12-11T09:57:18.587Z,21.75
2022-12-11T10:00:04.946Z,20.05
2022-12-11T10:02:47.746Z,19.48
2022-12-11T10:05:51.116Z,18.88
2022-12-11T10:08:31.365Z,14.43
2022-12-11T10:11:16.305Z,17.52
2022-12-11T10:14:01.599Z,23.38
2022-12-11T10:16:44.887Z,19.38
2022-12-11T10:19:21.996Z,18.73
2022-12-11T10:21:50.900Z,18.15
2022-12-11T10:27:39.756Z,22.52
2022-12-11T10:30:30.455Z,17.98
2022-12-11T10:33:11.193Z,17.98
2022-12-11T10:35:49.944Z,18.50
2022-12-11T10:38:26.248Z,19.02
2022-12-11T10:40:57.191Z,21.42
2022-12-11T10:43:48.086Z,22.27
2022-12-11T10:46:17.971Z,22.13
2022-12-11T10:48:56.041Z,20.35
2022-12-11T10:51:25.779Z,17.92
2022-12-11T10:53:55.504Z,18.85
2022-12-11T10:56:27.416Z,21.25
2022-12-11T10:58:56.151Z,22.90
2022-12-11T11:01:25.719Z,19.27
2022-12-11T11:04:13.683Z,18.95
2022-12-11T11:06:40.151Z,17.38
2022-12-11T11:09:35.289Z,20.05
2022-12-11T11:12:07.598Z,20.02
2022-12-11T11:14:34.607Z,18.33
2022-12-11T11:17:01.361Z,19.08
2022-12-11T11:19:32.170Z,23.30
2022-12-11T11:22:19.259Z,20.47
2022-12-11T11:24:58.983Z,18.45
2022-12-11T11:27:45.681Z,22.48
2022-12-11T11:30:22.724Z,19.45
2022-12-11T11:32:54.291Z,22.48
2022-12-11T11:35:26.569Z,22.55
2022-12-11T11:38:14.728Z,19.50
2022-12-11T11:41:08.807Z,18.65
2022-12-11T11:43:46.753Z,19.02
2022-12-11T11:46:33.379Z,20.45
2022-12-11T11:49:13.124Z,18.33
2022-12-11T11:52:02.744Z,20.38
2022-12-11T11:54:51.251Z,18.80
2022-12-11T11:57:24.753Z,22.27
2022-12-11T11:59:58.071Z,21.65
2022-12-11T12:02:24.709Z,20.08
2022-12-11T12:04:51.892Z,20.50
2022-12-11T12:07:32.102Z,19.10
2022-12-11T12:10:26.373Z,22.83
2022-12-11T12:13:44.453Z,20.05
2022-12-11T12:16:01.653Z,22.42
2022-12-11T12:18:43.011Z,24.63
2022-12-11T12:21:15.056Z,28.63
2022-12-11T12:24:25.757Z,35.42
2022-12-11T12:27:01.052Z,21.08
2022-12-11T12:30:03.641Z,20.52
2022-12-11T12:33:02.275Z,17.63
2022-12-11T12:35:42.339Z,18.95
2022-12-11T12:38:23.582Z,19.30
2022-12-11T12:41:02.095Z,21.48
2022-12-11T12:43:54.872Z,16.90
2022-12-11T12:47:00.058Z,18.73
2022-12-11T12:49:40.712Z,23.35
2022-12-11T12:52:15.427Z,28.85
2022-12-11T12:55:03.960Z,31.27
2022-12-11T12:57:32.152Z,15.88
2022-12-11T12:59:59.037Z,21.88
2022-12-11T13:02:26.213Z,24.52
2022-12-11T13:05:03.319Z,20.83
2022-12-11T13:07:31.631Z,22.40
2022-12-11T13:10:24.320Z,18.10
2022-12-11T13:12:50.843Z,21.05
2022-12-11T13:15:29.727Z,22.48
2022-12-11T13:17:56.418Z,20.55
2022-12-11T13:20:26.092Z,24.25
2022-12-11T13:23:17.132Z,20.63
2022-12-11T13:25:46.343Z,20.10
2022-12-11T13:28:47.083Z,22.50
2022-12-11T13:31:16.334Z,25.65
2022-12-11T13:33:48.522Z,26.80
2022-12-11T13:36:25.505Z,25.23
2022-12-11T13:39:00.466Z,38.17
2022-12-11T13:41:28.306Z,32.08
2022-12-11T13:43:56.938Z,28.83
2022-12-11T13:46:30.531Z,23.08
2022-12-11T13:49:00.892Z,25.40
2022-12-11T13:51:31.316Z,23.90
2022-12-11T13:54:17.295Z,26.13
2022-12-11T13:56:54.087Z,26.67
2022-12-11T13:59:24.988Z,25.80
2022-12-11T14:01:55.502Z,28.92
2022-12-11T14:04:22.913Z,26.42
2022-12-11T14:06:49.568Z,23.25
2022-12-11T14:09:22.464Z,27.27
2022-12-11T14:11:55.044Z,29.20
2022-12-11T14:14:43.230Z,25.55
2022-12-11T14:17:15.050Z,23.95
2022-12-11T14:19:48.400Z,22.90
2022-12-11T14:22:20.365Z,23.05
2022-12-11T14:24:55.447Z,25.58
2022-12-11T14:27:22.527Z,29.30
2022-12-11T14:29:49.268Z,26.88
2022-12-11T14:32:31.026Z,28.45
2022-12-11T14:37:26.413Z,27.05
2022-12-11T14:40:01.108Z,26.13
2022-12-11T14:42:32.379Z,30.77
2022-12-11T14:45:30.605Z,29.35
2022-12-11T14:47:58.398Z,32.63
2022-12-11T14:50:29.246Z,31.75
2022-12-11T14:53:02.139Z,33.25
2022-12-11T14:55:31.167Z,29.17
2022-12-11T14:58:00.467Z,30.25
2022-12-11T15:00:30.528Z,26.02
2022-12-11T15:02:58.552Z,29.77
2022-12-11T15:05:25.695Z,31.05
2022-12-11T15:07:58.139Z,29.40
2022-12-11T15:10:36.624Z,27.52
2022-12-11T15:13:07.868Z,31.35
2022-12-11T15:15:46.672Z,31.73
2022-12-11T15:18:24.504Z,30.92
2022-12-11T15:20:53.930Z,31.15
2022-12-11T15:23:20.832Z,34.70
2022-12-11T15:25:52.950Z,34.47
2022-12-11T15:28:36.230Z,29.90
2022-12-11T15:31:25.004Z,32.90
2022-12-11T15:33:51.527Z,35.45
2022-12-11T15:36:26.717Z,29.48
2022-12-11T15:38:53.312Z,35.33
2022-12-11T15:41:21.451Z,35.40
2022-12-11T15:43:48.039Z,30.27
2022-12-11T15:46:14.701Z,29.10
2022-12-11T15:48:41.188Z,27.50
2022-12-11T15:51:07.629Z,34.28
2022-12-11T15:53:34.064Z,29.45
2022-12-11T15:56:01.306Z,36.65
2022-12-11T15:58:28.673Z,35.22
2022-12-11T16:00:55.196Z,58.50
2022-12-11T16:03:23.009Z,39.65
2022-12-11T16:05:50.542Z,34.40
2022-12-11T16:08:20.776Z,40.90
2022-12-11T16:10:48.129Z,40.65
2022-12-11T16:13:14.869Z,42.10
2022-12-11T16:15:46.322Z,35.15
2022-12-11T16:18:18.890Z,40.78
2022-12-11T16:20:46.914Z,39.85
2022-12-11T16:23:14.627Z,35.88
2022-12-11T16:25:42.564Z,38.85
2022-12-11T16:28:11.130Z,36.65
2022-12-11T16:30:38.105Z,33.85
2022-12-11T16:33:12.071Z,35.40
2022-12-11T16:35:39.835Z,30.33
2022-12-11T16:38:07.628Z,30.75
2022-12-11T16:40:34.072Z,35.97
2022-12-11T16:43:00.580Z,34.50
2022-12-11T16:45:27.936Z,35.13
2022-12-11T16:47:54.831Z,34.47
2022-12-11T16:50:21.376Z,31.77
2022-12-11T16:52:47.874Z,35.72
2022-12-11T16:55:15.530Z,39.33
2022-12-11T16:57:42.178Z,38.00
2022-12-11T17:00:11.989Z,38.55
2022-12-11T17:02:38.544Z,34.67
2022-12-11T17:05:05.378Z,34.63
2022-12-11T17:07:32.576Z,36.33
2022-12-11T17:10:00.533Z,38.63
2022-12-11T17:12:27.956Z,32.55
2022-12-11T17:14:55.753Z,33.85
2022-12-11T17:17:22.266Z,30.67
2022-12-11T17:19:49.109Z,29.23
2022-12-11T17:22:15.586Z,45.70
2022-12-11T17:24:42.033Z,27.98
2022-12-11T17:27:08.477Z,29.50
2022-12-11T17:29:34.965Z,33.47
2022-12-11T17:32:03.095Z,29.85
2022-12-11T17:34:36.139Z,32.85
2022-12-11T17:37:04.988Z,27.55
2022-12-11T17:39:31.556Z,29.98
2022-12-11T17:41:57.987Z,31.05
2022-12-11T17:44:26.388Z,27.95
2022-12-11T17:46:53.007Z,27.92
2022-12-11T17:49:19.770Z,29.13
2022-12-11T17:51:47.767Z,32.40
2022-12-11T17:54:14.231Z,35.33
2022-12-11T17:56:41.097Z,34.70
2022-12-11T17:59:07.560Z,42.03
2022-12-11T18:01:34.512Z,35.92
2022-12-11T18:04:04.172Z,33.70
2022-12-11T18:06:31.446Z,38.53
2022-12-11T18:08:58.144Z,33.65
2022-12-11T18:11:24.690Z,36.97
2022-12-11T18:13:52.824Z,28.05
2022-12-11T18:16:32.453Z,34.75
2022-12-11T18:18:59.057Z,32.22
2022-12-11T18:21:29.032Z,31.67
2022-12-11T18:23:55.956Z,27.58
2022-12-11T18:26:23.047Z,25.98
2022-12-11T18:28:50.897Z,30.10
2022-12-11T18:31:18.543Z,30.23
2022-12-11T18:33:45.814Z,25.42
2022-12-11T18:36:14.263Z,26.83
2022-12-11T18:38:42.180Z,29.35
2022-12-11T18:41:10.732Z,30.88
2022-12-11T18:43:37.396Z,36.60
2022-12-11T18:46:08.476Z,27.02
2022-12-11T18:48:35.104Z,26.98
2022-12-11T18:51:11.072Z,27.27
2022-12-11T18:53:41.385Z,31.67
2022-12-11T18:56:10.307Z,28.27
2022-12-11T18:58:37.110Z,29.25
2022-12-11T19:01:14.030Z,29.63
2022-12-11T19:03:43.749Z,31.63
2022-12-11T19:06:13.464Z,29.25
2022-12-11T19:08:40.002Z,38.55
2022-12-11T19:11:06.856Z,32.22
2022-12-11T19:13:33.955Z,33.63
2022-12-11T19:16:00.943Z,32.90
2022-12-11T19:18:27.762Z,27.77
2022-12-11T19:21:03.272Z,35.17
2022-12-11T19:23:33.115Z,38.60
2022-12-11T19:25:59.491Z,38.83
2022-12-11T19:28:25.894Z,41.95
2022-12-11T19:30:52.361Z,37.42
2022-12-11T19:33:18.858Z,30.58
2022-12-11T19:35:45.313Z,32.10
2022-12-11T19:38:12.814Z,34.08
2022-12-11T19:40:43.679Z,38.95
2022-12-11T19:43:10.731Z,35.33
2022-12-11T19:45:37.417Z,40.97
2022-12-11T19:48:04.201Z,33.58
2022-12-11T19:50:30.737Z,40.80
2022-12-11T19:52:57.241Z,41.03
2022-12-11T19:55:23.714Z,35.97
2022-12-11T19:57:50.168Z,40.78
2022-12-11T20:00:16.930Z,38.15
2022-12-11T20:02:43.632Z,36.25
2022-12-11T20:05:11.194Z,37.33
2022-12-11T20:07:38.681Z,44.17
2022-12-11T20:10:05.695Z,32.47
2022-12-11T20:12:32.607Z,35.55
2022-12-11T20:14:59.068Z,40.03
2022-12-11T20:17:25.658Z,38.53
2022-12-11T20:19:52.171Z,35.80
2022-12-11T20:22:18.644Z,36.15
2022-12-11T20:24:45.080Z,41.90
2022-12-11T20:27:12.419Z,37.72
2022-12-11T20:29:39.182Z,36.47
2022-12-11T20:32:05.651Z,38.33
2022-12-11T20:34:32.118Z,40.35
2022-12-11T20:37:00.128Z,36.72
2022-12-11T20:39:27.059Z,36.97
2022-12-11T20:41:53.553Z,37.05
2022-12-11T20:44:20.188Z,38.25
2022-12-11T20:46:46.603Z,38.63
2022-12-11T20:49:13.291Z,39.58
2022-12-11T20:51:40.751Z,36.75
2022-12-11T20:54:07.228Z,36.63
2022-12-11T20:56:33.683Z,36.92
2022-12-11T20:59:00.802Z,39.40
2022-12-11T21:01:30.623Z,38.60
2022-12-11T21:03:57.891Z,38.47
2022-12-11T21:06:33.599Z,45.38
2022-12-11T21:09:03.178Z,45.17
2022-12-11T21:11:29.699Z,47.58
2022-12-11T21:13:56.309Z,44.83
2022-12-11T21:16:23.163Z,48.47
2022-12-11T21:18:49.767Z,43.40
2022-12-11T21:21:16.875Z,45.08
2022-12-11T21:23:43.910Z,40.38
2022-12-11T21:26:10.640Z,47.70
2022-12-11T21:28:37.099Z,38.00
2022-12-11T21:31:06.563Z,42.83
2022-12-11T21:33:33.718Z,37.03
2022-12-11T21:36:01.020Z,41.38
2022-12-11T21:38:28.141Z,43.33
2022-12-11T21:40:55.368Z,43.35
2022-12-11T21:43:22.560Z,41.63
2022-12-11T21:46:04.895Z,46.20
2022-12-11T21:48:31.768Z,37.40
2022-12-11T21:51:11.867Z,36.75
2022-12-11T21:53:38.888Z,35.90
2022-12-11T21:56:17.920Z,34.92
2022-12-11T21:58:45.141Z,38.50
2022-12-11T22:01:18.737Z,36.35
2022-12-11T22:03:45.612Z,39.17
2022-12-11T22:06:12.494Z,41.53
2022-12-11T22:08:39.092Z,39.17
2022-12-11T22:11:05.946Z,37.65
2022-12-11T22:13:32.517Z,37.25
2022-12-11T22:15:59.009Z,41.78
2022-12-11T22:18:28.414Z,35.75
2022-12-11T22:20:54.887Z,36.80
2022-12-11T22:23:22.046Z,36.60
2022-12-11T22:25:51.375Z,36.42
2022-12-11T22:28:19.065Z,35.67
2022-12-11T22:30:46.102Z,41.17
2022-12-11T22:33:12.628Z,34.90
2022-12-11T22:35:39.193Z,33.47
2022-12-11T22:38:06.549Z,37.90
2022-12-11T22:40:33.393Z,36.30
2022-12-11T22:42:59.957Z,32.13
2022-12-11T22:45:26.673Z,34.92
2022-12-11T22:47:53.178Z,38.28
2022-12-11T22:50:19.650Z,34.53
2022-12-11T22:52:46.088Z,36.63
2022-12-11T22:55:12.804Z,37.92
2022-12-11T22:57:39.512Z,38.35
2022-12-11T23:00:11.032Z,37.92
2022-12-11T23:02:38.173Z,38.38
2022-12-11T23:05:05.406Z,30.63
2022-12-11T23:07:32.685Z,35.55
2022-12-11T23:09:59.427Z,39.22
2022-12-11T23:12:25.823Z,30.98
2022-12-11T23:14:52.371Z,39.05
2022-12-11T23:17:18.839Z,36.38
2022-12-11T23:19:46.076Z,38.85
2022-12-11T23:22:13.260Z,34.50
2022-12-11T23:24:40.112Z,33.90
2022-12-11T23:27:06.895Z,35.15
2022-12-11T23:29:33.606Z,31.17
2022-12-11T23:32:00.078Z,26.63
2022-12-11T23:34:26.627Z,28.25
2022-12-11T23:36:53.169Z,39.78
2022-12-11T23:39:19.562Z,33.65
2022-12-11T23:41:46.322Z,26.08
2022-12-11T23:44:12.831Z,33.42
2022-12-11T23:46:39.332Z,35.45
2022-12-11T23:49:05.859Z,30.35
2022-12-11T23:51:32.297Z,32.35
2022-12-11T23:53:58.746Z,33.15
2022-12-11T23:56:28.275Z,31.73
2022-12-11T23:58:56.395Z,31.50
